Hauptseite
METAR-TAF:

METAR-TAF

Flughäfen :

Maastricht Aachen Airport

Maastricht Aachen, Niederlande

Breite: 50-55N, Länge: 005-47E, Höhe: 114 m

Beobachtung

Neuester Wetterbericht von vor 29 Minuten, um 07:55 UTC
Wind 5 kt aus Ost, variierte zwischen Ost/Nordost und Südost
Temperatur 25°C
Luftfeuchtigkeit 39%
Luftdruck 1022 hPa
Sichtweite 10 km oder mehr

METAR: EHBK 110755Z AUTO 10005KT 060V140 9999 NCD 25/10 Q1022 NOSIG

Zeit: 10:24 (08:24 UTC)

Prognose

Neuester Wetterbericht von vor 3 Stunden und 11 Minuten, um 05:13 UTC
Gültige Prognose vom 11 um 06 UTC bis 12 um 12 UTC
Wind 6 kt aus Ost
Sichtweite 10 km oder mehr
keine Wolken unter 1500 m und keine Kumulonimbus oder Gewitterwolken

TAF: EHBK 110513Z 1106/1212 08006KT CAVOK

Wetterbeobachtungen und Prognosen von mehr als 4000 Flughäfen (METAR und TAF Bericht).

Die verfügbaren Stationen werden durch gelbe und rote Markierungen auf der Karte dargestellt.

Führen Sie die Maus auf sie, um den Namen der Station zu sehen.

Darauf klicken, um die Beobachtung von Wetterbeobachtungen und Prognosen zu sehen.

Um die Karte zu ändern : klicken Sie auf den grünen Tasten mit einem schwarzen Kreuz Zum Vergrößern, auf den grünen Button mit einem Gedankenstrich zu verkleinern, oder auf die grünen Pfeile für benachbarte Karten.


METAR-TAF: